x

Ga-252 Tabs B (42043) Weather Station

11:00am - Wed 28th Jun 2017 All times are CDT. -5 hours from GMT.

  • Wind
    7mph, 11mph gusts
  • Sea Temp 83°f
  • Air Temp 73°f
  • Sea Pressure 1012.4mb
  • Ga-252 Tabs B
  • Ga-252 Tabs B

More Historic Weather Station data

Upgrade to MSW Pro to gain access to the past 30 days of data for over 8000 Wavebouys and Weather Stations around the globe.

Join Pro

Comparision Forecast

View Surf forecast
   
Wed 06/28 11:00am 7 11 mph 1012.4mb 83f 73f
10:00am 11 16 mph 1012.5mb 83f 71f
9:00am 11 13 mph 1012.2mb 83f 74f
8:00am 9 11 mph 1011.8mb 83f 74f
7:00am 13 16 mph 1012.3mb 83f 73f
6:00am 16 18 mph 1011.5mb 83f 72f
5:00am 7 11 mph 1011.8mb 83f 72f
4:00am 13 16 mph 1011.9mb 83f 73f
3:00am 13 18 mph 1012.6mb 83f 74f
2:00am 16 18 mph 1012.9mb 83f 75f
1:00am 18 20 mph 1013.1mb 83f 74f
12:00am 18 22 mph 1012.6mb 83f 75f
Tue 06/27 11:00pm 18 22 mph 1013.1mb 83f 75f
6:00pm 18 22 mph 1012.9mb 84f 75f
5:00pm 18 20 mph 1013.4mb 83f 74f
12:00pm 13 18 mph 1015.6mb 83f 73f
11:00am 13 18 mph 1016mb 83f 72f
9:00am 13 18 mph 1015.4mb 83f 74f
8:00am 13 16 mph 1015.3mb 83f 75f
6:00am 13 16 mph 1014.6mb 83f 74f
5:00am 13 18 mph 1014.5mb 83f 74f
4:00am 13 20 mph 1015.1mb 83f 74f
3:00am 18 20 mph 1015.2mb 83f 75f
2:00am 16 18 mph 1015.5mb 83f 74f
Mon 06/26 11:00pm 9 11 mph 1016.4mb 83f 76f
6:00pm 16 20 mph 1014.9mb 84f 77f
5:00pm 13 16 mph 1015.5mb 84f 77f
4:00pm 13 16 mph 1016mb 84f 77f
3:00pm 13 16 mph 1016.2mb 84f 77f
2:00pm 11 16 mph 1017mb 84f 76f
1:00pm 16 22 mph 1017.6mb 84f 75f
12:00pm 13 16 mph 1018.2mb 84f 76f
11:00am 13 16 mph 1018.6mb 83f 76f
10:00am 13 18 mph 1018.7mb 83f 76f
9:00am 9 13 mph 1018.5mb 83f 76f
8:00am 16 22 mph 1018.3mb 83f 76f
7:00am 7 9 mph 1018mb 84f 76f
6:00am 4 4 mph 1017.9mb 84f 76f
5:00am 2 4 mph 1017.8mb 84f 76f
4:00am 4 7 mph 1017.8mb 83f 76f
3:00am 7 9 mph 1017.7mb 83f 76f
2:00am 9 13 mph 1017.9mb 83f 76f
1:00am 11 13 mph 1018.5mb 83f 74f
12:00am 18 25 mph 1019mb 83f 77f
Sun 06/25 11:00pm 11 16 mph 1019.5mb 84f 78f
6:00pm 16 18 mph 1017.8mb 84f 78f
5:00pm 9 13 mph 1018.3mb 84f 78f
4:00pm 9 16 mph 1018.3mb 84f 77f
3:00pm 7 11 mph 1018.7mb 84f 78f
2:00pm 9 13 mph 1019.5mb 83f 78f
10:00am 11 13 mph 1020.1mb 83f 78f
9:00am 9 13 mph 1020.2mb 83f 78f
8:00am 9 11 mph 1019mb 83f 78f
7:00am 4 7 mph 1018.7mb 83f 78f
6:00am 2 2 mph 1018mb 83f 77f
5:00am 4 7 mph 1017.7mb 83f 78f
4:00am 7 9 mph 1017.9mb 83f 78f
3:00am 9 9 mph 1018.3mb 83f 78f
2:00am 9 13 mph 1018.5mb 83f 78f
1:00am 9 13 mph 1018.9mb 84f 79f
12:00am 9 11 mph 1018.9mb 84f 79f
Sat 06/24 11:00pm 11 16 mph 1018.6mb 84f 79f